Monday, September 1, 2014, 7:12 AM EDT

KDOV, Dover Air Force Base

Location: Dover, DE, United States Lat: 39.133
Local Time: 7:12 AM EDT (11:12 GMT) Lon: -75.467
Time Zone: US/Eastern Elev: 29 ft

Show me the last for .
Show Decoded

2014-09-01 06:58 METAR KDOV 011058Z AUTO 00000KT 10SM FEW150 BKN180 23/23 A3002 RMK AO2 SLP169
                 T02260226 $ =
2014-09-01 05:58 METAR KDOV 010958Z AUTO 00000KT 10SM BKN110 BKN140 22/22 A3001 RMK AO2 SLP165
                 T02240224 $ =
2014-09-01 04:58 METAR KDOV 010858Z AUTO 27002KT 10SM BKN100 OVC120 23/23 A3000 RMK AO2 SLP162
                 T02280228 55003 $ =
2014-09-01 04:13 METAR KDOV 010813Z AUTO 30002KT 10SM SCT028 BKN120 OVC140 23/23 A2999 RMK AO2 $
                 =
2014-09-01 04:08 METAR KDOV 010808Z AUTO 31003KT 10SM BKN028 BKN120 OVC140 23/23 A2999 =
2014-09-01 03:58 METAR KDOV 010758Z AUTO 28003KT 10SM SCT031 SCT120 BKN140 23/23 A2999 RMK AO2
                 SLP159 T02270227 $ =
2014-09-01 02:58 METAR KDOV 010658Z AUTO 21003KT 10SM BKN033 OVC042 23/23 A3000 RMK AO2 SLP162
                 T02260226 $ =
2014-09-01 01:58 METAR KDOV 010558Z AUTO 25002KT 10SM SCT120 BKN140 BKN170 BKN230 23/23 A3001 RMK
                 AO2 RAE0509DZB0509E0519 SLP165 P0000 60019 T02260226 10283 20226 55004 $ =
2014-09-01 01:17 METAR KDOV 010517Z AUTO 24003KT 10SM SCT090 SCT130 23/23 A3000 RMK AO2 =
2014-09-01 01:03 METAR KDOV 010503Z AUTO 21004KT 10SM -RA OVC090 23/23 A3001 RMK AO2 =
2014-09-01 00:58 METAR KDOV 010458Z AUTO 21005KT 8SM R19/5500FT -RA OVC080 23/23 A3001 RMK AO2
                 SLP165 P0010 $ =
2014-09-01 00:43 METAR KDOV 010443Z AUTO 23009KT 7SM R19/5500FT RA FEW003 SCT033 OVC070 23/23
                 A3002 RMK AO2 =
2014-09-01 00:38 METAR KDOV 010438Z AUTO 23009G19KT 4SM R19/4500FT RA BR FEW003 SCT034 OVC065
                 23/23 A3002 RMK AO2 CIG 034 RWY01 $ =
2014-09-01 00:33 METAR KDOV 010433Z AUTO 25014KT 6SM R01/5000FT RA BR SCT012 SCT017 SCT023 BKN033
                 BKN044 OVC060 24/24 A3003 RMK AO2 VIS 1 1/2 RWY19 $ =
2014-09-01 00:28 METAR KDOV 010428Z AUTO 26011G16KT 230V290 6SM R01/5000FT -RA BR FEW012 SCT017
                 BKN022 BKN033 BKN044 24/24 A3003 RMK AO2 CIG 022V044 =
2014-09-01 00:08 METAR KDOV 010408Z AUTO 13003KT 10SM R01/5500FT -RA FEW044 SCT140 23/23 A3001
                 RMK AO2 =
2014-08-31 23:58 METAR KDOV 010358Z AUTO 13004KT 10SM -RA FEW047 23/23 A3002 RMK AO2 DZB0336E0338
                 SLP169 P0003 T02340234 $ =
2014-08-31 23:34 METAR KDOV 010334Z AUTO 10005KT 10SM -DZ FEW140 23/23 A3002 RMK AO2 =
2014-08-31 23:19 METAR KDOV 010319Z AUTO 11005KT 10SM CLR 23/23 A3002 RMK AO2 =
2014-08-31 22:58 METAR KDOV 010258Z AUTO 10005KT 9SM -RA FEW070 23/23 A3002 RMK AO2 SLP169 P0005
                 60006 T02320232 50006 $ =
2014-08-31 22:46 METAR KDOV 010246Z AUTO 07003KT 9SM -RA FEW065 23/23 A3002 RMK AO2 =
2014-08-31 22:45 METAR KDOV 010245Z AUTO 07003KT 10SM CLR 23/23 A3002 RMK AO2 =
2014-08-31 21:58 METAR KDOV 010158Z AUTO 27002KT 10SM -RA FEW049 24/23 A3003 =
2014-08-31 21:21 METAR KDOV 010121Z AUTO 30010KT 9SM R19/5500FT -RA FEW030 SCT049 BKN060 BKN070
                 27/22 A3002 RMK AO2 =
2014-08-31 20:58 METAR KDOV 010058Z AUTO 18009KT 10SM FEW170 28/22 A3001 RMK AO2 LTG DSNT NW-N
                 SLP165 T02770224 $ =
2014-08-31 19:58 METAR KDOV 312358Z AUTO 19011KT 10SM CLR 28/22 A3000 RMK AO2 LTG DSNT N-NE
                 SLP162 T02830222 10340 20283 51006 $ =
2014-08-31 18:58 METAR KDOV 312258Z AUTO 18013KT 10SM CLR 30/23 A2999 RMK AO2 SLP159 T02950229 $
                 =
2014-08-31 17:58 METAR KDOV 312158Z AUTO 20014KT 10SM CLR 32/23 A2999 =
2014-08-31 16:58 METAR KDOV 312058Z AUTO 20013KT 10SM CLR 33/23 A2998 =
2014-08-31 15:58 METAR KDOV 311958Z AUTO 20014KT 10SM FEW055 33/23 A3000 =
2014-08-31 14:58 METAR KDOV 311858Z AUTO 20013G22KT 10SM SCT049 34/22 A3001 =
2014-08-31 13:58 METAR KDOV 311758Z AUTO 19016G21KT 10SM FEW048 33/22 A3003 RMK AO2 SLP172
                 T03320223 10332 20242 57020 $ =
2014-08-31 12:58 METAR KDOV 311658Z AUTO 18015G18KT 10SM FEW037 33/23 A3004 =
2014-08-31 11:58 METAR KDOV 311558Z AUTO 19013G20KT 10SM FEW033 32/24 A3007 =
2014-08-31 10:58 METAR KDOV 311458Z AUTO 19012G21KT 10SM CLR 30/24 A3009 =
2014-08-31 09:58 METAR KDOV 311358Z AUTO 19013KT 10SM CLR 28/24 A3011 =
2014-08-31 08:58 METAR KDOV 311258Z AUTO 19010KT 10SM CLR 26/25 A3012 RMK AO2 SLP203 T02580251 $
                 =
2014-08-31 07:58 METAR KDOV 311158Z AUTO 20012KT 10SM FEW007 24/24 A3012 =

Support USWX by starting your Amazon purchase here.